Time;durP1;ratioP1;P1;durP2;ratioP2;P2;SDS_P1;SDS_P2;PMS_P1;PMS_P2;Temp;Humidity;BMP_temperature;BMP_pressure;BME280_temperature;BME280_humidity;BME280_pressure;Samples;Min_cycle;Max_cycle;Signal;HPM_P1;HPM_P2
2022/09/29 00:00:41;;;;;;;6.32;5.30;;;12.50;99.90;;;;;;6157681;23;20557;-78
2022/09/29 00:03:10;;;;;;;6.72;5.60;;;12.50;99.90;;;;;;6156787;23;20206;-78
2022/09/29 00:05:37;;;;;;;5.70;5.25;;;12.40;99.90;;;;;;6158716;23;20230;-81
2022/09/29 00:08:04;;;;;;;7.22;6.55;;;12.40;99.90;;;;;;6157012;23;20206;-78
2022/09/29 00:10:30;;;;;;;5.68;5.07;;;12.40;99.90;;;;;;6157356;23;20214;-78
2022/09/29 00:12:59;;;;;;;5.03;4.55;;;12.40;99.90;;;;;;6157076;23;20225;-78
2022/09/29 00:15:26;;;;;;;6.57;5.30;;;12.40;99.90;;;;;;6156731;23;20646;-80
2022/09/29 00:17:53;;;;;;;6.13;5.00;;;12.40;99.90;;;;;;6156301;23;20202;-81
2022/09/29 00:20:20;;;;;;;5.82;5.20;;;12.30;99.90;;;;;;6157298;23;20704;-81
2022/09/29 00:22:51;;;;;;;7.35;5.18;;;12.30;99.90;;;;;;6157982;23;20284;-77
2022/09/29 00:25:18;;;;;;;6.63;5.53;;;12.30;99.90;;;;;;6156733;23;20222;-80
2022/09/29 00:27:45;;;;;;;10.98;5.63;;;12.30;99.90;;;;;;6157379;23;20202;-81
2022/09/29 00:30:14;;;;;;;6.60;5.65;;;12.20;99.90;;;;;;6156121;23;20281;-80
2022/09/29 00:32:41;;;;;;;8.63;5.63;;;12.20;99.90;;;;;;6157025;23;20238;-80
2022/09/29 00:35:10;;;;;;;7.03;6.32;;;12.20;99.90;;;;;;6156509;23;20264;-78
2022/09/29 00:37:38;;;;;;;7.93;6.55;;;12.10;99.90;;;;;;6156362;23;20210;-77
2022/09/29 00:40:06;;;;;;;7.65;6.25;;;12.10;99.90;;;;;;6155286;23;20226;-80
2022/09/29 00:42:33;;;;;;;7.03;5.45;;;12.10;99.90;;;;;;6157269;23;20202;-81
2022/09/29 00:45:18;;;;;;;5.80;5.28;;;12.10;99.90;;;;;;6157472;23;20205;-78
2022/09/29 00:47:51;;;;;;;9.68;6.07;;;12.10;99.90;;;;;;6157652;23;20198;-78
2022/09/29 00:50:23;;;;;;;7.03;6.22;;;12.10;99.90;;;;;;6156619;23;20256;-80
2022/09/29 00:52:53;;;;;;;8.23;6.80;;;12.10;99.90;;;;;;6156897;23;20218;-78
2022/09/29 00:55:25;;;;;;;7.63;6.03;;;12.10;99.90;;;;;;6155903;23;20194;-81
2022/09/29 00:57:57;;;;;;;8.55;6.57;;;12.10;99.90;;;;;;6156959;23;20500;-78
2022/09/29 01:00:27;;;;;;;11.98;6.35;;;12.10;99.90;;;;;;6156672;23;20206;-78
2022/09/29 01:02:59;;;;;;;7.85;5.95;;;12.10;99.90;;;;;;6157575;23;20201;-80
2022/09/29 01:05:31;;;;;;;6.55;5.88;;;12.10;99.90;;;;;;6156689;23;20209;-78
2022/09/29 01:08:04;;;;;;;7.00;5.80;;;12.10;99.90;;;;;;6156643;23;20225;-77
2022/09/29 01:10:31;;;;;;;6.07;5.47;;;12.10;99.90;;;;;;6157411;23;20210;-79
2022/09/29 01:12:59;;;;;;;7.50;6.80;;;12.10;99.90;;;;;;6155566;23;20234;-80
2022/09/29 01:15:28;;;;;;;8.85;6.78;;;12.00;99.90;;;;;;6155756;23;20702;-80
2022/09/29 01:17:56;;;;;;;6.20;5.60;;;12.00;99.90;;;;;;6157431;23;20642;-77
2022/09/29 01:20:24;;;;;;;8.40;7.60;;;12.00;99.90;;;;;;6153534;23;20209;-77
2022/09/29 01:23:32;;;;;;;7.15;6.43;;;12.00;99.90;;;;;;6156650;23;20244;-80
2022/09/29 01:26:37;;;;;;;6.18;5.57;;;12.00;99.90;;;;;;6125017;23;20202;-79
2022/09/29 01:29:40;;;;;;;6.38;5.80;;;12.00;99.90;;;;;;6154071;23;20554;-77
2022/09/29 01:32:19;;;;;;;7.28;6.53;;;12.00;99.90;;;;;;6154589;23;20483;-79
2022/09/29 01:34:53;;;;;;;7.85;5.78;;;12.00;99.90;;;;;;6156247;23;20229;-79
2022/09/29 01:37:36;;;;;;;6.03;5.30;;;11.90;99.90;;;;;;6156541;23;20550;-80
2022/09/29 01:40:09;;;;;;;7.35;6.53;;;11.90;99.90;;;;;;6156191;23;20538;-77
2022/09/29 01:42:43;;;;;;;9.43;7.53;;;11.90;99.90;;;;;;6156590;23;20307;-77
2022/09/29 01:45:16;;;;;;;9.65;6.65;;;11.90;99.90;;;;;;6154520;23;20264;-79
2022/09/29 01:47:51;;;;;;;8.52;7.38;;;11.90;99.90;;;;;;6154399;23;20498;-77
2022/09/29 01:50:22;;;;;;;8.18;7.07;;;11.90;99.90;;;;;;6154320;23;20194;-80
2022/09/29 01:52:55;;;;;;;6.18;5.55;;;11.90;99.90;;;;;;6156044;23;20226;-77
2022/09/29 01:55:25;;;;;;;8.73;7.43;;;11.90;99.90;;;;;;6154662;23;20193;-77
2022/09/29 01:57:56;;;;;;;5.85;5.35;;;11.90;99.90;;;;;;6157241;23;20518;-80
2022/09/29 02:00:30;;;;;;;7.65;6.85;;;11.90;99.90;;;;;;6125085;23;20198;-79
2022/09/29 02:03:05;;;;;;;8.88;6.90;;;11.80;99.90;;;;;;6110077;23;20676;-80
2022/09/29 02:05:40;;;;;;;7.75;6.20;;;11.80;99.90;;;;;;6154924;23;20757;-77
2022/09/29 02:08:10;;;;;;;7.03;6.32;;;11.80;99.90;;;;;;6156594;23;20210;-77
2022/09/29 02:10:43;;;;;;;5.28;4.88;;;11.80;99.90;;;;;;6155881;23;20216;-77
2022/09/29 02:13:13;;;;;;;7.03;6.32;;;11.90;99.90;;;;;;6156322;23;20217;-79
2022/09/29 02:15:45;;;;;;;10.10;6.97;;;11.80;99.90;;;;;;6155973;23;20257;-80
2022/09/29 02:18:18;;;;;;;7.60;6.90;;;11.80;99.90;;;;;;6156702;23;20646;-80
2022/09/29 02:20:47;;;;;;;7.00;6.30;;;11.80;99.90;;;;;;6156117;23;20198;-79
2022/09/29 02:23:14;;;;;;;11.13;7.10;;;11.80;99.90;;;;;;6156558;23;20500;-77
2022/09/29 02:26:03;;;;;;;6.18;5.57;;;11.80;99.90;;;;;;6155692;23;20641;-80
2022/09/29 02:28:31;;;;;;;6.80;6.10;;;11.80;99.90;;;;;;6143469;23;20697;-80
2022/09/29 02:30:58;;;;;;;6.85;6.15;;;11.80;99.90;;;;;;6156540;23;20206;-77
2022/09/29 02:33:26;;;;;;;7.25;6.55;;;11.80;99.90;;;;;;6155247;23;20206;-78
2022/09/29 02:36:06;;;;;;;7.32;6.63;;;11.80;99.90;;;;;;6156751;23;20557;-80
2022/09/29 02:38:42;;;;;;;8.55;7.03;;;11.80;99.90;;;;;;6154201;23;20201;-79
2022/09/29 02:41:23;;;;;;;6.07;5.47;;;11.80;99.90;;;;;;6131825;23;20269;-80
2022/09/29 02:44:15;;;;;;;6.15;5.55;;;11.90;99.90;;;;;;6143132;23;20323;-81
2022/09/29 02:46:57;;;;;;;8.05;6.10;;;12.00;99.90;;;;;;6157497;23;20264;-79
2022/09/29 02:49:41;;;;;;;7.85;6.38;;;11.90;99.90;;;;;;6146545;23;20204;-79
2022/09/29 02:52:19;;;;;;;7.50;6.75;;;12.00;99.90;;;;;;6163925;23;20206;-79
2022/09/29 02:54:56;;;;;;;7.28;6.55;;;12.00;99.90;;;;;;6163178;23;20202;-78
2022/09/29 02:57:30;;;;;;;7.97;7.03;;;12.00;99.90;;;;;;6161445;23;20194;-79
2022/09/29 03:00:08;;;;;;;8.13;6.60;;;12.10;99.90;;;;;;6165647;23;20205;-79
2022/09/29 03:02:37;;;;;;;7.53;6.93;;;12.10;99.90;;;;;;6168819;23;20213;-77
2022/09/29 03:05:09;;;;;;;6.63;6.03;;;12.10;99.90;;;;;;6165574;23;20673;-79
2022/09/29 03:07:37;;;;;;;6.32;5.72;;;12.20;99.90;;;;;;6168142;23;20202;-80
2022/09/29 03:10:05;;;;;;;9.10;6.90;;;12.20;99.90;;;;;;6169402;23;20202;-79
2022/09/29 03:12:32;;;;;;;6.63;5.88;;;12.20;99.90;;;;;;6169347;23;20206;-80
2022/09/29 03:14:59;;;;;;;6.97;6.28;;;12.20;99.90;;;;;;6164759;23;20546;-77
2022/09/29 03:17:26;;;;;;;8.00;7.22;;;12.30;99.90;;;;;;6168864;23;20205;-79
2022/09/29 03:19:53;;;;;;;7.63;6.93;;;12.30;99.90;;;;;;6167670;23;20232;-77
2022/09/29 03:22:21;;;;;;;7.43;6.72;;;12.30;99.90;;;;;;6164712;23;20228;-77
2022/09/29 03:24:48;;;;;;;8.13;6.97;;;12.30;99.90;;;;;;6124769;23;20206;-80
2022/09/29 03:27:15;;;;;;;7.07;6.32;;;12.30;99.90;;;;;;6163521;23;20202;-79
2022/09/29 03:29:42;;;;;;;7.53;6.82;;;12.30;99.90;;;;;;6160223;23;20222;-79
2022/09/29 03:32:10;;;;;;;8.27;7.47;;;12.30;99.90;;;;;;6160485;23;20547;-80
2022/09/29 03:34:37;;;;;;;9.27;7.35;;;12.30;99.90;;;;;;6159688;23;20221;-78
2022/09/29 03:37:05;;;;;;;7.03;6.32;;;12.30;99.90;;;;;;6158657;23;20232;-80
2022/09/29 03:39:33;;;;;;;9.27;8.40;;;12.30;99.90;;;;;;6159717;23;20209;-77
2022/09/29 03:42:07;;;;;;;7.50;6.35;;;12.30;99.90;;;;;;6158400;23;20531;-76
2022/09/29 03:44:34;;;;;;;7.93;6.88;;;12.30;99.90;;;;;;6158928;23;20220;-79
2022/09/29 03:47:01;;;;;;;8.18;7.38;;;12.30;99.90;;;;;;6157742;23;20204;-79
2022/09/29 03:49:28;;;;;;;8.13;7.35;;;12.30;99.90;;;;;;6158612;23;20205;-79
2022/09/29 03:51:55;;;;;;;8.63;7.72;;;12.30;99.90;;;;;;6157455;23;20206;-78
2022/09/29 03:54:23;;;;;;;8.45;7.75;;;12.30;99.90;;;;;;6160195;23;20194;-80
2022/09/29 03:56:51;;;;;;;7.88;7.13;;;12.20;99.90;;;;;;6159090;23;20255;-80
2022/09/29 03:59:18;;;;;;;9.00;7.32;;;12.20;99.90;;;;;;6157774;23;20202;-78
2022/09/29 04:01:45;;;;;;;8.77;7.88;;;12.20;99.90;;;;;;6158338;23;20210;-79
2022/09/29 04:04:12;;;;;;;8.23;7.35;;;12.10;99.90;;;;;;6157569;23;20205;-79
2022/09/29 04:06:39;;;;;;;9.18;8.27;;;12.10;99.90;;;;;;6158168;23;20206;-79
2022/09/29 04:09:08;;;;;;;7.57;6.88;;;12.10;99.90;;;;;;6157108;23;20557;-76
2022/09/29 04:11:35;;;;;;;10.75;8.15;;;12.20;99.90;;;;;;6157776;23;20202;-76
2022/09/29 04:14:04;;;;;;;9.13;8.38;;;12.20;99.90;;;;;;6156535;23;20654;-79
2022/09/29 04:16:31;;;;;;;9.40;8.50;;;12.20;99.90;;;;;;6158206;23;20218;-79
2022/09/29 04:18:58;;;;;;;9.10;8.20;;;12.20;99.90;;;;;;6157398;23;20226;-77
2022/09/29 04:21:25;;;;;;;8.05;7.25;;;12.10;99.90;;;;;;6156535;23;20206;-77
2022/09/29 04:23:52;;;;;;;8.50;7.70;;;12.10;99.90;;;;;;6157935;23;20685;-80
2022/09/29 04:26:19;;;;;;;9.10;8.30;;;12.10;99.90;;;;;;6156941;23;20221;-80
2022/09/29 04:28:46;;;;;;;9.00;8.20;;;12.10;99.90;;;;;;6157814;23;20568;-76
2022/09/29 04:31:15;;;;;;;11.73;7.78;;;12.10;99.90;;;;;;6157264;23;20510;-80
2022/09/29 04:33:42;;;;;;;8.95;7.45;;;12.10;99.90;;;;;;6156435;23;20206;-79
2022/09/29 04:36:12;;;;;;;8.07;7.38;;;12.10;99.90;;;;;;6155081;23;20272;-79
2022/09/29 04:38:39;;;;;;;8.20;7.47;;;12.10;99.90;;;;;;6157521;23;20273;-77
2022/09/29 04:41:06;;;;;;;8.23;7.53;;;12.10;99.90;;;;;;6158224;23;20570;-80
2022/09/29 04:43:33;;;;;;;8.95;6.88;;;12.20;99.90;;;;;;6165865;23;20258;-79
2022/09/29 04:46:05;;;;;;;9.02;7.85;;;12.20;99.90;;;;;;6165737;23;20510;-78
2022/09/29 04:48:34;;;;;;;10.65;8.35;;;12.20;99.90;;;;;;6171797;23;20254;-79
2022/09/29 04:51:01;;;;;;;10.35;9.32;;;12.20;99.90;;;;;;6173932;23;20198;-77
2022/09/29 04:53:31;;;;;;;8.60;7.80;;;12.10;99.90;;;;;;6170195;23;20515;-76
2022/09/29 04:55:58;;;;;;;9.63;8.55;;;12.20;99.90;;;;;;6160418;23;20237;-79
2022/09/29 04:58:25;;;;;;;9.57;8.45;;;12.20;99.90;;;;;;6159754;23;20607;-79
2022/09/29 05:00:53;;;;;;;9.68;8.55;;;12.20;99.90;;;;;;6157470;23;20685;-80
2022/09/29 05:03:20;;;;;;;8.40;7.60;;;12.20;99.90;;;;;;6156912;23;20528;-80
2022/09/29 05:05:48;;;;;;;10.02;9.10;;;12.20;99.90;;;;;;6156896;23;20686;-79
2022/09/29 05:08:18;;;;;;;10.57;9.20;;;12.20;99.90;;;;;;6157208;23;20642;-77
2022/09/29 05:10:46;;;;;;;8.95;7.90;;;12.20;99.90;;;;;;6155948;23;20213;-80
2022/09/29 05:13:13;;;;;;;8.80;8.02;;;12.20;99.90;;;;;;6156664;23;20210;-79
2022/09/29 05:15:41;;;;;;;11.32;8.73;;;12.20;99.90;;;;;;6156193;23;20202;-80
2022/09/29 05:18:07;;;;;;;10.25;9.35;;;12.20;99.90;;;;;;6157021;23;20194;-78
2022/09/29 05:20:34;;;;;;;9.60;8.63;;;12.30;99.90;;;;;;6156043;23;20198;-78
2022/09/29 05:23:08;;;;;;;10.35;9.25;;;12.30;99.90;;;;;;6157119;23;20215;-80
2022/09/29 05:25:37;;;;;;;12.25;10.05;;;12.30;99.90;;;;;;6155677;23;20513;-79
2022/09/29 05:28:06;;;;;;;12.93;8.82;;;12.30;99.90;;;;;;6156931;23;20475;-81
2022/09/29 05:30:33;;;;;;;9.23;8.32;;;12.30;99.90;;;;;;6157025;23;20273;-80
2022/09/29 05:33:00;;;;;;;9.50;8.60;;;12.30;99.90;;;;;;6155329;23;20227;-77
2022/09/29 05:35:27;;;;;;;8.93;8.02;;;12.40;99.90;;;;;;6156538;23;20222;-77
2022/09/29 05:37:54;;;;;;;12.88;9.38;;;12.40;99.90;;;;;;6155927;23;20206;-79
2022/09/29 05:40:24;;;;;;;10.68;9.48;;;12.40;99.90;;;;;;6157701;23;20198;-80
2022/09/29 05:42:51;;;;;;;9.60;8.65;;;12.40;99.90;;;;;;6156694;23;20213;-79
2022/09/29 05:45:19;;;;;;;14.13;9.63;;;12.40;99.90;;;;;;6156460;23;20198;-80
2022/09/29 05:47:46;;;;;;;12.45;10.00;;;12.40;99.90;;;;;;6127535;23;20199;-77
2022/09/29 05:50:13;;;;;;;13.60;9.25;;;12.40;99.90;;;;;;6145202;23;20195;-77
2022/09/29 05:52:47;;;;;;;9.57;8.38;;;12.50;99.90;;;;;;6156404;23;20210;-77
2022/09/29 05:55:15;;;;;;;14.77;10.70;;;12.50;99.90;;;;;;6155626;23;20257;-77
2022/09/29 05:57:47;;;;;;;13.70;10.23;;;12.50;99.90;;;;;;6156452;23;20261;-77
2022/09/29 06:00:14;;;;;;;11.48;9.10;;;12.50;99.90;;;;;;6156123;23;20201;-80
2022/09/29 06:02:41;;;;;;;12.48;10.70;;;12.50;99.90;;;;;;6156409;23;20487;-77
2022/09/29 06:05:08;;;;;;;14.40;10.15;;;12.60;99.90;;;;;;6155875;23;20261;-77
2022/09/29 06:07:35;;;;;;;12.35;10.30;;;12.60;99.90;;;;;;6156516;23;20273;-77
2022/09/29 06:10:02;;;;;;;10.98;9.88;;;12.60;99.90;;;;;;6155367;23;20201;-77
2022/09/29 06:12:33;;;;;;;15.85;10.55;;;12.60;99.90;;;;;;6156129;23;20208;-78
2022/09/29 06:15:02;;;;;;;15.98;12.18;;;12.60;99.90;;;;;;6155144;23;20236;-77
2022/09/29 06:17:29;;;;;;;11.52;9.80;;;12.60;99.90;;;;;;6156126;23;20202;-77
2022/09/29 06:19:56;;;;;;;20.33;12.02;;;12.60;99.90;;;;;;6143379;23;20197;-76
2022/09/29 06:22:23;;;;;;;16.10;11.02;;;12.60;99.90;;;;;;6156443;23;20209;-78
2022/09/29 06:24:51;;;;;;;13.82;10.38;;;12.60;99.90;;;;;;6156271;23;20554;-77
2022/09/29 06:27:18;;;;;;;18.40;11.48;;;12.70;99.90;;;;;;6155636;23;20209;-77
2022/09/29 06:29:45;;;;;;;11.80;10.60;;;12.70;99.90;;;;;;6156344;23;20280;-77
2022/09/29 06:32:13;;;;;;;14.05;11.07;;;12.70;99.90;;;;;;6155030;23;20220;-77
2022/09/29 06:37:33;;;;;;;13.23;10.80;;;12.80;99.90;;;;;;6156325;23;20202;-77
2022/09/29 06:37:35;;;;;;;11.05;9.70;;;12.70;99.90;;;;;;6155858;23;20611;-77
2022/09/29 06:40:03;;;;;;;11.90;10.68;;;12.80;99.90;;;;;;6156297;23;20194;-79
2022/09/29 06:42:30;;;;;;;13.15;11.07;;;12.80;99.90;;;;;;6153071;23;20209;-76
2022/09/29 06:44:58;;;;;;;12.90;10.43;;;12.80;99.90;;;;;;6156655;23;20202;-79
2022/09/29 06:47:27;;;;;;;10.50;9.50;;;12.80;99.90;;;;;;6156030;23;20207;-77
2022/09/29 06:49:54;;;;;;;13.50;9.38;;;12.80;99.90;;;;;;6156159;23;20213;-77
2022/09/29 06:52:21;;;;;;;12.38;11.15;;;12.90;99.90;;;;;;6155118;23;20206;-77
2022/09/29 06:54:48;;;;;;;12.52;9.70;;;12.90;99.90;;;;;;6156750;23;20205;-77
2022/09/29 06:57:17;;;;;;;11.77;9.85;;;12.90;99.90;;;;;;6155631;23;20556;-78
2022/09/29 06:59:45;;;;;;;13.70;12.18;;;13.00;99.90;;;;;;6156485;23;20197;-77
2022/09/29 07:02:12;;;;;;;12.13;10.75;;;13.00;99.90;;;;;;6155296;23;20233;-78
2022/09/29 07:04:40;;;;;;;10.02;9.00;;;13.00;99.90;;;;;;6156012;23;20264;-78
2022/09/29 07:07:07;;;;;;;13.23;10.02;;;13.00;99.90;;;;;;6154837;23;20214;-78
2022/09/29 07:09:34;;;;;;;14.35;12.15;;;12.90;99.90;;;;;;6156123;23;20225;-78
2022/09/29 07:12:02;;;;;;;15.93;10.88;;;13.00;99.90;;;;;;6156289;23;20245;-80
2022/09/29 07:14:29;;;;;;;14.82;12.15;;;13.00;99.90;;;;;;6155173;23;20217;-80
2022/09/29 07:16:57;;;;;;;14.93;10.55;;;13.00;99.90;;;;;;6156496;23;20226;-80
2022/09/29 07:19:25;;;;;;;14.75;10.55;;;13.00;99.90;;;;;;6155699;23;20198;-80
2022/09/29 07:21:58;;;;;;;12.23;10.13;;;13.00;99.90;;;;;;6156707;23;20249;-77
2022/09/29 07:24:25;;;;;;;11.75;10.55;;;13.00;99.90;;;;;;6155983;23;20213;-78
2022/09/29 07:26:52;;;;;;;13.10;10.73;;;13.00;99.90;;;;;;6157235;23;20201;-80
2022/09/29 07:29:21;;;;;;;12.07;9.45;;;13.00;99.90;;;;;;6156554;23;20204;-77
2022/09/29 07:31:51;;;;;;;11.77;9.45;;;13.00;99.90;;;;;;6156808;23;20269;-80
2022/09/29 07:34:22;;;;;;;13.60;10.88;;;13.00;99.90;;;;;;6158166;23;20260;-79
2022/09/29 07:36:50;;;;;;;17.27;11.52;;;13.00;99.90;;;;;;6160827;23;20202;-80
2022/09/29 07:39:20;;;;;;;11.93;9.85;;;13.00;99.90;;;;;;6163788;23;20212;-80
2022/09/29 07:41:47;;;;;;;13.63;10.90;;;13.00;99.90;;;;;;6171972;23;20206;-80
2022/09/29 07:44:14;;;;;;;18.35;13.63;;;13.00;99.90;;;;;;6170265;23;20194;-78
2022/09/29 07:46:42;;;;;;;15.15;12.18;;;12.90;99.90;;;;;;6167186;23;20206;-80
2022/09/29 07:49:09;;;;;;;12.70;10.85;;;12.90;99.90;;;;;;6168276;23;20233;-77
2022/09/29 07:51:36;;;;;;;14.70;12.60;;;13.00;99.90;;;;;;6168392;23;20210;-77
2022/09/29 07:54:04;;;;;;;16.90;13.13;;;13.00;99.90;;;;;;6166339;23;20318;-80
2022/09/29 07:56:34;;;;;;;19.05;13.60;;;13.00;99.90;;;;;;6161755;23;20202;-81
2022/09/29 07:59:03;;;;;;;19.70;13.43;;;13.10;99.90;;;;;;6159513;23;20237;-78
2022/09/29 08:01:31;;;;;;;14.73;12.73;;;13.10;99.90;;;;;;6119754;23;20535;-81
2022/09/29 08:03:58;;;;;;;18.85;14.90;;;13.10;99.90;;;;;;6165542;23;20209;-78
2022/09/29 08:06:26;;;;;;;19.85;13.50;;;13.10;99.90;;;;;;6168460;23;20206;-79
2022/09/29 08:08:54;;;;;;;19.15;14.07;;;13.10;99.90;;;;;;6165187;23;20198;-77
2022/09/29 08:11:22;;;;;;;18.80;13.68;;;13.10;99.90;;;;;;6163125;23;20212;-80
2022/09/29 08:13:52;;;;;;;19.17;13.60;;;13.20;99.90;;;;;;6163108;23;20209;-78
2022/09/29 08:16:19;;;;;;;15.55;12.35;;;13.20;99.90;;;;;;6158667;23;20276;-80
2022/09/29 08:18:47;;;;;;;16.27;12.73;;;13.20;99.90;;;;;;6158640;23;20194;-80
2022/09/29 08:21:14;;;;;;;15.00;12.77;;;13.20;99.90;;;;;;6157993;23;20502;-80
2022/09/29 08:23:43;;;;;;;19.00;15.05;;;13.20;99.90;;;;;;6155685;23;20232;-80
2022/09/29 08:26:12;;;;;;;14.75;12.82;;;13.20;99.90;;;;;;6157659;23;20510;-78
2022/09/29 08:28:40;;;;;;;13.13;11.82;;;13.20;99.90;;;;;;6155525;23;20257;-80
2022/09/29 08:31:12;;;;;;;15.45;12.02;;;13.30;99.90;;;;;;6157291;23;20511;-78
2022/09/29 08:33:39;;;;;;;12.40;11.10;;;13.40;99.90;;;;;;6156286;23;20731;-78
2022/09/29 08:36:13;;;;;;;15.25;13.20;;;13.40;99.90;;;;;;6157828;23;20510;-81
2022/09/29 08:38:43;;;;;;;16.13;13.98;;;13.40;99.90;;;;;;6155911;23;20502;-80
2022/09/29 08:41:29;;;;;;;16.50;13.88;;;13.50;99.90;;;;;;6157251;23;20204;-80
2022/09/29 08:44:00;;;;;;;16.55;12.80;;;13.50;99.90;;;;;;6156340;23;20626;-78
2022/09/29 08:46:33;;;;;;;14.40;12.38;;;13.60;99.90;;;;;;6157255;23;20567;-78
2022/09/29 08:49:06;;;;;;;16.65;12.70;;;13.60;99.90;;;;;;6156843;23;20194;-77
2022/09/29 08:51:37;;;;;;;16.42;14.68;;;13.70;99.90;;;;;;6157063;23;20206;-78
2022/09/29 08:54:14;;;;;;;21.27;15.75;;;13.70;99.90;;;;;;6156315;23;20198;-78
2022/09/29 08:56:41;;;;;;;17.42;13.07;;;13.80;99.90;;;;;;6156009;23;20198;-78
2022/09/29 08:59:09;;;;;;;17.48;12.70;;;13.80;99.90;;;;;;6157116;23;20209;-78
2022/09/29 09:01:52;;;;;;;15.90;12.25;;;13.80;99.90;;;;;;6157067;23;20206;-78
2022/09/29 09:04:42;;;;;;;18.58;14.93;;;13.90;99.90;;;;;;6157804;23;20514;-80
2022/09/29 09:07:17;;;;;;;18.05;14.55;;;13.90;99.90;;;;;;6156433;23;20473;-80
2022/09/29 09:09:56;;;;;;;15.90;12.27;;;14.00;99.90;;;;;;6157299;23;20205;-80
2022/09/29 09:12:52;;;;;;;15.70;14.00;;;14.10;99.90;;;;;;6156644;23;20212;-80
2022/09/29 09:15:34;;;;;;;17.88;14.23;;;14.10;99.90;;;;;;6124103;23;20210;-81
2022/09/29 09:18:23;;;;;;;21.83;15.50;;;14.20;99.90;;;;;;6157052;23;20214;-81
2022/09/29 09:20:56;;;;;;;15.82;13.63;;;14.20;99.90;;;;;;6157160;23;20194;-80
2022/09/29 09:23:28;;;;;;;18.10;13.03;;;14.20;99.90;;;;;;6157437;23;20222;-80
2022/09/29 09:25:59;;;;;;;15.53;12.67;;;14.30;99.90;;;;;;6154885;23;20438;-80
2022/09/29 09:28:29;;;;;;;13.00;10.85;;;14.40;99.90;;;;;;6157232;23;20468;-80
2022/09/29 09:31:01;;;;;;;14.33;12.20;;;14.40;99.90;;;;;;6155580;23;20202;-78
2022/09/29 09:33:35;;;;;;;13.20;10.87;;;14.40;99.90;;;;;;6155440;23;20905;-80
2022/09/29 09:36:07;;;;;;;14.37;12.87;;;14.40;99.90;;;;;;6156127;23;20507;-79
2022/09/29 09:38:44;;;;;;;18.10;14.40;;;14.50;99.90;;;;;;6156793;23;20723;-78
2022/09/29 09:43:47;;;;;;;23.23;16.97;;;14.60;99.90;;;;;;6151270;23;20497;-81
2022/09/29 09:46:21;;;;;;;15.38;12.48;;;14.70;99.90;;;;;;6156587;23;20842;-80
2022/09/29 09:48:59;;;;;;;14.97;11.83;;;14.70;99.90;;;;;;6154957;23;20206;-77
2022/09/29 09:51:35;;;;;;;16.05;11.77;;;14.80;99.90;;;;;;6156882;23;20996;-81
2022/09/29 09:54:06;;;;;;;11.40;10.23;;;14.80;99.90;;;;;;6155651;23;20198;-79
2022/09/29 09:56:53;;;;;;;15.90;13.43;;;14.90;99.90;;;;;;6156224;23;20719;-78
2022/09/29 09:59:31;;;;;;;14.40;12.57;;;14.90;99.90;;;;;;6156580;23;20491;-78
2022/09/29 10:01:58;;;;;;;14.70;11.50;;;15.00;99.90;;;;;;6156341;23;20492;-78
2022/09/29 10:04:27;;;;;;;13.87;11.07;;;15.10;99.90;;;;;;6155548;23;20438;-78
2022/09/29 10:06:56;;;;;;;13.00;10.70;;;15.20;99.90;;;;;;6155838;23;20441;-78
2022/09/29 10:09:23;;;;;;;13.50;10.70;;;15.20;99.90;;;;;;6155864;23;20965;-78
2022/09/29 10:11:51;;;;;;;12.13;10.83;;;15.30;99.90;;;;;;6156709;23;20734;-80
2022/09/29 10:14:24;;;;;;;12.33;11.00;;;15.30;99.90;;;;;;6156585;23;20469;-80
2022/09/29 10:16:56;;;;;;;12.33;11.10;;;15.30;99.90;;;;;;6155876;23;20426;-81
2022/09/29 10:19:44;;;;;;;10.30;9.37;;;15.40;99.90;;;;;;6156190;23;20436;-80
2022/09/29 10:22:19;;;;;;;8.50;7.63;;;15.40;99.90;;;;;;6155838;23;20433;-81
2022/09/29 10:24:54;;;;;;;11.97;10.67;;;15.50;99.90;;;;;;6156168;23;20890;-80
2022/09/29 10:27:24;;;;;;;8.83;7.93;;;15.50;99.90;;;;;;6155446;23;20912;-78
2022/09/29 10:29:53;;;;;;;10.27;9.17;;;15.50;99.90;;;;;;6119690;23;20469;-80
2022/09/29 10:32:26;;;;;;;11.23;8.57;;;15.50;99.90;;;;;;6152221;23;20520;-80
2022/09/29 10:35:01;;;;;;;7.43;6.33;;;15.50;99.90;;;;;;6156418;23;20445;-81
2022/09/29 10:37:34;;;;;;;7.40;6.60;;;15.50;99.90;;;;;;6155721;23;20456;-80
2022/09/29 10:40:13;;;;;;;6.00;5.50;;;15.50;99.90;;;;;;6156264;23;20438;-80
2022/09/29 10:42:42;;;;;;;7.30;6.60;;;15.60;99.90;;;;;;6155563;23;20429;-80
2022/09/29 10:45:14;;;;;;;8.67;7.80;;;15.60;99.90;;;;;;6155901;23;20440;-80
2022/09/29 10:47:42;;;;;;;7.93;7.20;;;15.50;99.90;;;;;;6155824;23;20430;-78
2022/09/29 10:50:16;;;;;;;6.57;5.97;;;15.50;99.90;;;;;;6155710;23;20437;-77
2022/09/29 10:52:48;;;;;;;8.33;7.53;;;15.60;99.90;;;;;;6155709;23;20418;-78
2022/09/29 10:55:21;;;;;;;7.63;7.00;;;15.60;99.90;;;;;;6155937;23;20433;-78
2022/09/29 10:57:49;;;;;;;6.83;6.23;;;15.60;99.90;;;;;;6155148;23;20496;-80
2022/09/29 11:00:30;;;;;;;7.63;7.03;;;15.60;99.90;;;;;;6155738;23;20504;-78
2022/09/29 11:03:07;;;;;;;6.63;6.10;;;15.70;99.90;;;;;;6155420;23;20464;-79
2022/09/29 11:05:36;;;;;;;5.90;5.40;;;15.70;99.90;;;;;;6155110;23;20516;-80
2022/09/29 11:08:13;;;;;;;7.10;6.40;;;15.70;99.90;;;;;;6155598;23;20445;-78
2022/09/29 11:10:40;;;;;;;7.07;6.40;;;15.70;99.90;;;;;;6154857;23;20495;-78
2022/09/29 11:13:35;;;;;;;7.40;6.70;;;15.70;99.90;;;;;;6155680;23;20426;-79
2022/09/29 11:16:05;;;;;;;10.57;8.80;;;15.70;99.90;;;;;;6154767;23;20426;-81
2022/09/29 11:18:36;;;;;;;7.80;6.00;;;15.70;99.90;;;;;;6155735;23;20460;-81
2022/09/29 11:21:24;;;;;;;4.70;4.30;;;15.80;99.90;;;;;;6154520;23;20500;-80
2022/09/29 11:23:56;;;;;;;7.17;6.00;;;15.80;99.90;;;;;;6155258;23;20461;-80
2022/09/29 11:26:29;;;;;;;6.50;4.83;;;15.80;99.90;;;;;;6155324;23;20437;-78
2022/09/29 11:29:18;;;;;;;5.03;4.63;;;15.80;99.90;;;;;;6155100;23;20988;-80
2022/09/29 11:32:11;;;;;;;5.70;5.20;;;15.80;99.90;;;;;;6155492;23;20442;-80
2022/09/29 11:34:50;;;;;;;4.33;3.83;;;15.80;99.90;;;;;;6155516;23;20496;-81
2022/09/29 11:37:31;;;;;;;6.87;6.00;;;15.80;99.90;;;;;;6157318;23;20459;-77
2022/09/29 11:40:10;;;;;;;6.33;5.80;;;15.80;99.90;;;;;;6158526;23;20489;-78
2022/09/29 11:42:57;;;;;;;9.20;5.70;;;15.80;99.90;;;;;;6157838;23;20441;-81
2022/09/29 11:45:34;;;;;;;7.87;6.60;;;15.80;99.90;;;;;;6157692;23;20430;-78
2022/09/29 11:48:38;;;;;;;6.17;5.67;;;15.90;99.90;;;;;;6156316;23;20437;-78
2022/09/29 11:51:15;;;;;;;6.50;5.90;;;15.80;99.90;;;;;;6156769;23;20429;-81
2022/09/29 11:53:59;;;;;;;9.47;6.70;;;15.90;99.90;;;;;;6157464;23;20472;-81
2022/09/29 11:56:41;;;;;;;4.77;4.37;;;15.80;99.90;;;;;;6155622;23;20719;-80
2022/09/29 11:59:30;;;;;;;5.13;4.63;;;15.90;99.90;;;;;;6158231;23;20742;-78
2022/09/29 12:02:19;;;;;;;5.20;4.77;;;15.90;99.90;;;;;;6158078;23;20449;-80
2022/09/29 12:04:56;;;;;;;4.67;4.27;;;15.90;99.90;;;;;;6157616;23;20444;-78
2022/09/29 12:07:36;;;;;;;5.00;4.37;;;15.90;99.90;;;;;;6157596;23;20431;-77
2022/09/29 12:10:25;;;;;;;6.60;4.10;;;15.90;99.90;;;;;;6156506;23;20444;-80
2022/09/29 12:12:59;;;;;;;4.90;3.90;;;16.00;99.90;;;;;;6157077;23;20492;-78
2022/09/29 12:15:37;;;;;;;4.80;4.43;;;16.00;99.90;;;;;;6157277;23;20779;-78
2022/09/29 12:18:10;;;;;;;5.50;4.47;;;16.00;99.90;;;;;;6156746;23;20437;-80
2022/09/29 12:20:42;;;;;;;5.37;4.97;;;16.00;99.90;;;;;;6157719;23;20457;-80
2022/09/29 12:23:14;;;;;;;5.00;4.50;;;16.00;99.90;;;;;;6155660;23;20437;-78
2022/09/29 12:25:56;;;;;;;4.77;4.47;;;16.10;99.90;;;;;;6157773;23;20457;-78
2022/09/29 12:28:32;;;;;;;4.47;3.87;;;16.10;99.90;;;;;;6158310;23;20472;-77
2022/09/29 12:31:03;;;;;;;4.37;4.03;;;16.10;99.90;;;;;;6156989;23;20499;-78
2022/09/29 12:33:34;;;;;;;4.77;4.27;;;16.10;99.90;;;;;;6156329;23;20750;-80
2022/09/29 12:39:17;;;;;;;3.60;3.30;;;16.20;99.90;;;;;;6156848;23;20432;-80
2022/09/29 12:41:49;;;;;;;4.37;3.97;;;16.20;99.90;;;;;;6156822;23;20445;-80
2022/09/29 12:44:25;;;;;;;3.43;3.20;;;16.30;99.90;;;;;;6155515;23;20520;-77
2022/09/29 12:46:59;;;;;;;3.30;3.00;;;16.30;99.90;;;;;;6156850;23;20449;-77
2022/09/29 12:49:34;;;;;;;3.13;2.83;;;16.40;99.90;;;;;;6157742;23;20777;-80
2022/09/29 12:52:08;;;;;;;2.87;2.67;;;16.40;99.90;;;;;;6156231;23;20467;-77
2022/09/29 12:54:43;;;;;;;3.77;3.43;;;16.50;99.90;;;;;;6157335;23;20442;-77
2022/09/29 12:57:14;;;;;;;4.10;3.70;;;16.50;99.90;;;;;;6156261;23;20444;-76
2022/09/29 12:59:47;;;;;;;6.13;5.10;;;16.60;99.90;;;;;;6156759;23;20448;-77
2022/09/29 13:02:42;;;;;;;5.63;4.70;;;16.50;99.80;;;;;;6156619;23;20437;-78
2022/09/29 13:05:42;;;;;;;4.73;3.80;;;16.40;99.60;;;;;;6156660;23;20466;-78
2022/09/29 13:08:39;;;;;;;4.20;3.80;;;16.40;99.70;;;;;;6153023;23;20517;-77
2022/09/29 13:11:17;;;;;;;4.10;3.80;;;16.40;99.90;;;;;;6156262;23;20480;-77